createdAt,value
2022-08-26T00:00:03.163Z,25.31
2022-08-26T00:00:13.161Z,25.30
2022-08-26T00:00:23.163Z,25.29
2022-08-26T00:00:33.157Z,25.29
2022-08-26T00:00:43.160Z,25.30
2022-08-26T00:00:53.155Z,25.29
2022-08-26T00:01:03.175Z,25.29
2022-08-26T00:01:13.155Z,25.35
2022-08-26T00:01:24.181Z,25.31
2022-08-26T00:01:33.681Z,25.31
2022-08-26T00:01:44.928Z,25.34
2022-08-26T00:01:53.840Z,25.34
2022-08-26T00:02:03.186Z,25.31
2022-08-26T00:02:23.236Z,25.29
2022-08-26T00:02:33.180Z,25.31
2022-08-26T00:02:43.145Z,25.29
2022-08-26T00:02:53.141Z,25.31
2022-08-26T00:03:03.217Z,25.30
2022-08-26T00:03:13.139Z,25.30
2022-08-26T00:03:23.144Z,25.31
2022-08-26T00:03:33.136Z,25.31
2022-08-26T00:03:43.232Z,25.31
2022-08-26T00:03:53.188Z,25.31
2022-08-26T00:04:03.199Z,25.36
2022-08-26T00:04:13.195Z,25.36
2022-08-26T00:04:23.243Z,25.35
2022-08-26T00:04:33.130Z,25.35
2022-08-26T00:04:43.132Z,25.35
2022-08-26T00:04:53.127Z,25.38
2022-08-26T00:05:03.128Z,25.34
2022-08-26T00:05:13.128Z,25.34
2022-08-26T00:05:23.127Z,25.31
2022-08-26T00:05:33.122Z,25.35
2022-08-26T00:05:43.125Z,25.34
2022-08-26T00:05:53.123Z,25.35
2022-08-26T00:06:03.122Z,25.35
2022-08-26T00:06:13.121Z,25.38
2022-08-26T00:06:23.123Z,25.39
2022-08-26T00:06:33.117Z,25.38
2022-08-26T00:06:46.359Z,25.38
2022-08-26T00:06:53.112Z,25.38
2022-08-26T00:07:03.173Z,25.38
2022-08-26T00:07:23.113Z,25.41
2022-08-26T00:07:33.123Z,25.38
2022-08-26T00:07:43.441Z,25.36
2022-08-26T00:07:53.110Z,25.31
2022-08-26T00:08:03.112Z,25.36
2022-08-26T00:08:13.205Z,25.34
2022-08-26T00:08:23.108Z,25.35
2022-08-26T00:08:33.106Z,25.35
2022-08-26T00:08:43.108Z,25.35
2022-08-26T00:08:53.100Z,25.30
2022-08-26T00:09:03.118Z,25.29
2022-08-26T00:09:13.098Z,25.31
2022-08-26T00:09:23.102Z,25.31
2022-08-26T00:09:43.097Z,25.30
2022-08-26T00:09:54.478Z,25.30
2022-08-26T00:10:03.099Z,25.31
2022-08-26T00:10:13.090Z,25.30
2022-08-26T00:10:23.093Z,25.30
2022-08-26T00:10:33.111Z,25.29
2022-08-26T00:10:43.117Z,25.30
2022-08-26T00:10:53.214Z,25.26
2022-08-26T00:11:03.111Z,25.27
2022-08-26T00:11:13.084Z,25.27
2022-08-26T00:11:26.882Z,25.26
2022-08-26T00:11:33.084Z,25.23
2022-08-26T00:11:43.084Z,25.23
2022-08-26T00:11:53.097Z,25.24
2022-08-26T00:12:03.098Z,25.22
2022-08-26T00:12:35.870Z,25.20
2022-08-26T00:12:40.699Z,25.20
2022-08-26T00:12:45.900Z,25.20
2022-08-26T00:12:55.958Z,25.19
2022-08-26T00:13:06.105Z,25.20
2022-08-26T00:13:15.903Z,25.20
2022-08-26T00:13:25.879Z,25.17
2022-08-26T00:13:35.879Z,25.19
2022-08-26T00:13:48.577Z,25.17
2022-08-26T00:13:55.906Z,25.16
2022-08-26T00:14:05.886Z,25.14
2022-08-26T00:14:15.872Z,25.16
2022-08-26T00:14:30.808Z,25.14
2022-08-26T00:14:35.874Z,25.12
2022-08-26T00:14:45.871Z,25.14
2022-08-26T00:14:55.872Z,25.14
2022-08-26T00:15:05.880Z,25.16
2022-08-26T00:15:15.863Z,25.19
2022-08-26T00:15:25.866Z,25.12
2022-08-26T00:15:35.863Z,25.17
2022-08-26T00:15:45.863Z,25.14
2022-08-26T00:15:55.858Z,25.14
2022-08-26T00:16:05.910Z,25.11
2022-08-26T00:16:15.911Z,25.11
2022-08-26T00:16:25.920Z,25.11
2022-08-26T00:16:35.915Z,25.11
2022-08-26T00:16:47.681Z,25.14
2022-08-26T00:16:55.932Z,25.14
2022-08-26T00:17:05.860Z,25.14
2022-08-26T00:17:15.850Z,25.14
2022-08-26T00:17:25.852Z,25.14
2022-08-26T00:17:35.862Z,25.16
2022-08-26T00:17:45.853Z,25.17
2022-08-26T00:17:55.844Z,25.17
2022-08-26T00:18:05.848Z,25.17
2022-08-26T00:18:26.907Z,25.20
2022-08-26T00:18:31.572Z,25.17
2022-08-26T00:18:43.361Z,25.19
2022-08-26T00:18:51.571Z,25.17
2022-08-26T00:19:01.568Z,25.19
2022-08-26T00:19:11.569Z,25.23
2022-08-26T00:19:21.565Z,25.23
2022-08-26T00:19:41.589Z,25.24
2022-08-26T00:19:51.563Z,25.27
2022-08-26T00:20:01.559Z,25.27
2022-08-26T00:20:11.562Z,25.27
2022-08-26T00:20:21.560Z,25.29
2022-08-26T00:20:31.558Z,25.34
2022-08-26T00:20:41.557Z,25.30
2022-08-26T00:20:51.555Z,25.30
2022-08-26T00:21:01.555Z,25.30
2022-08-26T00:21:11.563Z,25.29
2022-08-26T00:21:21.553Z,25.27
2022-08-26T00:21:31.550Z,25.27
2022-08-26T00:21:41.552Z,25.31
2022-08-26T00:21:51.554Z,25.30
2022-08-26T00:22:11.591Z,25.34
2022-08-26T00:22:21.750Z,25.35
2022-08-26T00:22:31.542Z,25.36
2022-08-26T00:22:41.546Z,25.38
2022-08-26T00:22:51.541Z,25.39
2022-08-26T00:23:01.626Z,25.41
2022-08-26T00:23:11.539Z,25.42
2022-08-26T00:23:24.108Z,25.44
2022-08-26T00:23:31.534Z,25.42
2022-08-26T00:23:41.537Z,25.44
2022-08-26T00:23:51.534Z,25.42
2022-08-26T00:24:01.536Z,25.44
2022-08-26T00:24:11.541Z,25.42
2022-08-26T00:24:21.530Z,25.41
2022-08-26T00:24:31.532Z,25.44
2022-08-26T00:24:47.918Z,25.41
2022-08-26T00:24:52.702Z,25.39
2022-08-26T00:25:01.559Z,25.38
2022-08-26T00:25:11.525Z,25.36
2022-08-26T00:25:21.548Z,25.35
2022-08-26T00:25:31.545Z,25.31
2022-08-26T00:25:42.553Z,25.30
2022-08-26T00:25:51.520Z,25.29
2022-08-26T00:26:01.520Z,25.27
2022-08-26T00:26:11.517Z,25.27
2022-08-26T00:26:21.519Z,25.24
2022-08-26T00:26:31.516Z,25.22
2022-08-26T00:26:41.671Z,25.22
2022-08-26T00:26:51.729Z,25.17
2022-08-26T00:27:11.509Z,25.14
2022-08-26T00:27:21.529Z,25.16
2022-08-26T00:27:31.507Z,25.17
2022-08-26T00:27:41.524Z,25.16
2022-08-26T00:27:51.507Z,25.17
2022-08-26T00:28:01.509Z,25.16
2022-08-26T00:28:11.503Z,25.14
2022-08-26T00:28:21.615Z,25.14
2022-08-26T00:28:31.516Z,25.14
2022-08-26T00:28:41.503Z,25.16
2022-08-26T00:28:51.497Z,25.16
2022-08-26T00:29:01.502Z,25.12
2022-08-26T00:29:11.497Z,25.16
2022-08-26T00:29:21.497Z,25.14
2022-08-26T00:29:31.952Z,25.17
2022-08-26T00:29:41.495Z,25.16
2022-08-26T00:29:51.491Z,25.19
2022-08-26T00:30:01.493Z,25.19
2022-08-26T00:30:11.508Z,25.22
2022-08-26T00:30:22.817Z,25.22
2022-08-26T00:30:31.488Z,25.22
2022-08-26T00:30:41.489Z,25.17
2022-08-26T00:30:51.595Z,25.20
2022-08-26T00:31:01.489Z,25.16
2022-08-26T00:31:11.482Z,25.16
2022-08-26T00:31:21.530Z,25.17
2022-08-26T00:31:31.498Z,25.16
2022-08-26T00:31:41.511Z,25.16
2022-08-26T00:31:51.562Z,25.12
2022-08-26T00:32:01.549Z,25.14
2022-08-26T00:32:11.543Z,25.14
2022-08-26T00:32:21.492Z,25.12
2022-08-26T00:32:31.474Z,25.08
2022-08-26T00:32:41.473Z,25.09
2022-08-26T00:32:51.469Z,25.12
2022-08-26T00:33:01.475Z,25.12
2022-08-26T00:33:11.480Z,25.14
2022-08-26T00:33:21.472Z,25.11
2022-08-26T00:33:31.467Z,25.12
2022-08-26T00:33:41.482Z,25.11
2022-08-26T00:33:51.464Z,25.11
2022-08-26T00:34:01.466Z,25.08
2022-08-26T00:34:12.011Z,25.09
2022-08-26T00:34:21.464Z,25.11
2022-08-26T00:34:41.462Z,25.11
2022-08-26T00:34:51.458Z,25.11
2022-08-26T00:35:01.458Z,25.11
2022-08-26T00:35:11.458Z,25.12
2022-08-26T00:35:21.460Z,25.14
2022-08-26T00:35:31.454Z,25.14
2022-08-26T00:35:45.232Z,25.16
2022-08-26T00:35:51.526Z,25.16
2022-08-26T00:36:01.460Z,25.19
2022-08-26T00:36:19.855Z,25.16
2022-08-26T00:36:24.941Z,25.14
2022-08-26T00:36:34.481Z,25.17
2022-08-26T00:36:44.484Z,25.17
2022-08-26T00:37:04.487Z,25.16
2022-08-26T00:37:16.272Z,25.16
2022-08-26T00:37:24.481Z,25.14
2022-08-26T00:37:34.474Z,25.16
2022-08-26T00:37:44.479Z,25.12
2022-08-26T00:37:54.471Z,25.16
2022-08-26T00:38:04.474Z,25.17
2022-08-26T00:38:14.469Z,25.16
2022-08-26T00:38:24.477Z,25.16
2022-08-26T00:38:34.466Z,25.17
2022-08-26T00:38:44.480Z,25.17
2022-08-26T00:38:54.475Z,25.19
2022-08-26T00:39:04.467Z,25.17
2022-08-26T00:39:14.461Z,25.17
2022-08-26T00:39:34.478Z,25.20
2022-08-26T00:39:44.465Z,25.19
2022-08-26T00:39:54.510Z,25.20
2022-08-26T00:40:05.347Z,25.19
2022-08-26T00:40:14.512Z,25.20
2022-08-26T00:40:24.577Z,25.19
2022-08-26T00:40:34.567Z,25.20
2022-08-26T00:40:44.463Z,25.17
2022-08-26T00:40:54.454Z,25.16
2022-08-26T00:41:04.456Z,25.22
2022-08-26T00:41:14.458Z,25.16
2022-08-26T00:41:24.468Z,25.19
2022-08-26T00:41:34.458Z,25.22
2022-08-26T00:41:44.451Z,25.22
2022-08-26T00:42:04.476Z,25.24
2022-08-26T00:42:14.441Z,25.27
2022-08-26T00:42:24.445Z,25.29
2022-08-26T00:42:34.439Z,25.29
2022-08-26T00:42:45.967Z,25.29
2022-08-26T00:42:54.456Z,25.34
2022-08-26T00:43:06.979Z,25.31
2022-08-26T00:43:14.444Z,25.35
2022-08-26T00:43:24.460Z,25.35
2022-08-26T00:43:47.166Z,25.36
2022-08-26T00:43:52.465Z,25.30
2022-08-26T00:43:57.508Z,25.29
2022-08-26T00:44:07.522Z,25.29
2022-08-26T00:44:17.508Z,25.29
2022-08-26T00:44:27.508Z,25.26
2022-08-26T00:44:37.505Z,25.24
2022-08-26T00:44:47.510Z,25.26
2022-08-26T00:44:57.502Z,25.24
2022-08-26T00:45:11.663Z,25.23
2022-08-26T00:45:17.514Z,25.22
2022-08-26T00:45:27.566Z,25.23
2022-08-26T00:45:37.617Z,25.22
2022-08-26T00:45:47.575Z,25.20
2022-08-26T00:45:57.600Z,25.19
2022-08-26T00:46:07.520Z,25.19
2022-08-26T00:46:17.571Z,25.19
2022-08-26T00:46:27.495Z,25.22
2022-08-26T00:46:37.491Z,25.22
2022-08-26T00:46:57.489Z,25.23
2022-08-26T00:47:07.490Z,25.17
2022-08-26T00:47:17.488Z,25.19
2022-08-26T00:47:27.488Z,25.20
2022-08-26T00:47:37.483Z,25.22
2022-08-26T00:47:47.491Z,25.20
2022-08-26T00:47:57.479Z,25.19
2022-08-26T00:48:07.487Z,25.20
2022-08-26T00:48:17.477Z,25.17
2022-08-26T00:48:27.482Z,25.16
2022-08-26T00:48:37.483Z,25.19
2022-08-26T00:48:47.480Z,25.17
2022-08-26T00:48:57.474Z,25.17
2022-08-26T00:49:11.658Z,25.14
2022-08-26T00:49:17.480Z,25.17
2022-08-26T00:49:27.474Z,25.19
2022-08-26T00:49:37.471Z,25.16
2022-08-26T00:49:47.472Z,25.17
2022-08-26T00:49:57.468Z,25.19
2022-08-26T00:50:07.476Z,25.17
2022-08-26T00:50:17.464Z,25.19
2022-08-26T00:50:27.490Z,25.16
2022-08-26T00:50:37.467Z,25.17
2022-08-26T00:50:47.465Z,25.17
2022-08-26T00:50:57.460Z,25.17
2022-08-26T00:51:07.462Z,25.17
2022-08-26T00:51:17.457Z,25.17
2022-08-26T00:51:29.648Z,25.19
2022-08-26T00:51:37.459Z,25.19
2022-08-26T00:51:47.457Z,25.17
2022-08-26T00:52:09.787Z,25.20
2022-08-26T00:52:17.451Z,25.20
2022-08-26T00:52:27.456Z,25.20
2022-08-26T00:52:37.451Z,25.19
2022-08-26T00:52:47.476Z,25.20
2022-08-26T00:52:57.448Z,25.16
2022-08-26T00:53:07.645Z,25.16
2022-08-26T00:53:17.445Z,25.16
2022-08-26T00:53:27.977Z,25.14
2022-08-26T00:53:37.451Z,25.17
2022-08-26T00:53:47.443Z,25.12
2022-08-26T00:53:57.438Z,25.14
2022-08-26T00:54:07.444Z,25.14
2022-08-26T00:54:17.438Z,25.17
2022-08-26T00:54:37.437Z,25.14
2022-08-26T00:54:47.440Z,25.14
2022-08-26T00:54:57.434Z,25.11
2022-08-26T00:55:07.436Z,25.12
2022-08-26T00:55:20.375Z,25.12
2022-08-26T00:55:38.036Z,25.11
2022-08-26T00:55:42.822Z,25.11
2022-08-26T00:55:47.503Z,25.11
2022-08-26T00:55:57.499Z,25.11
2022-08-26T00:56:07.499Z,25.12
2022-08-26T00:56:17.501Z,25.11
2022-08-26T00:56:27.500Z,25.12
2022-08-26T00:56:37.513Z,25.12
2022-08-26T00:56:47.498Z,25.14
2022-08-26T00:56:57.494Z,25.16
2022-08-26T00:57:08.693Z,25.14
2022-08-26T00:57:21.053Z,25.16
2022-08-26T00:57:27.492Z,25.12
2022-08-26T00:57:37.486Z,25.17
2022-08-26T00:57:47.490Z,25.14
2022-08-26T00:57:57.487Z,25.11
2022-08-26T00:58:14.265Z,25.12
2022-08-26T00:58:18.942Z,25.09
2022-08-26T00:58:28.933Z,25.09
2022-08-26T00:58:38.928Z,25.08
2022-08-26T00:58:48.929Z,25.04
2022-08-26T00:58:58.924Z,25.05
2022-08-26T00:59:08.932Z,25.04
2022-08-26T00:59:18.923Z,25.05
2022-08-26T00:59:28.938Z,25.02
2022-08-26T00:59:39.007Z,25.02
2022-08-26T00:59:48.924Z,25.07
2022-08-26T00:59:58.921Z,25.07
2022-08-26T01:00:08.921Z,25.08
2022-08-26T01:00:18.917Z,25.08
2022-08-26T01:00:28.937Z,25.07
2022-08-26T01:00:38.986Z,25.02
2022-08-26T01:00:48.973Z,25.05
2022-08-26T01:00:58.984Z,25.04
2022-08-26T01:01:08.984Z,25.01
2022-08-26T01:01:18.987Z,25.02
2022-08-26T01:01:28.975Z,25.01
2022-08-26T01:01:38.906Z,25.02
2022-08-26T01:01:49.024Z,24.98
2022-08-26T01:01:58.942Z,24.98
2022-08-26T01:02:08.941Z,24.94
2022-08-26T01:02:25.004Z,24.92
2022-08-26T01:02:29.688Z,24.97
2022-08-26T01:02:39.709Z,24.92
2022-08-26T01:02:51.211Z,24.93
2022-08-26T01:02:59.669Z,24.90
2022-08-26T01:03:12.703Z,24.92
2022-08-26T01:03:19.665Z,24.93
2022-08-26T01:03:29.667Z,24.94
2022-08-26T01:03:39.662Z,24.93
2022-08-26T01:03:49.665Z,24.92
2022-08-26T01:03:59.663Z,24.93
2022-08-26T01:04:09.676Z,24.93
2022-08-26T01:04:19.661Z,24.89
2022-08-26T01:04:29.655Z,24.92
2022-08-26T01:04:39.658Z,24.93
2022-08-26T01:04:49.652Z,24.92
2022-08-26T01:05:00.515Z,24.93
2022-08-26T01:05:09.654Z,24.90
2022-08-26T01:05:19.654Z,24.94
2022-08-26T01:05:29.652Z,24.92
2022-08-26T01:05:39.652Z,24.90
2022-08-26T01:05:49.649Z,24.89
2022-08-26T01:05:59.652Z,24.89
2022-08-26T01:06:11.466Z,24.92
2022-08-26T01:06:19.648Z,24.89
2022-08-26T01:06:29.646Z,24.94
2022-08-26T01:06:39.646Z,24.94
2022-08-26T01:06:49.642Z,24.97
2022-08-26T01:06:59.659Z,24.97
2022-08-26T01:07:09.638Z,25.01
2022-08-26T01:07:19.641Z,25.04
2022-08-26T01:07:30.181Z,25.01
2022-08-26T01:07:39.638Z,25.02
2022-08-26T01:07:49.849Z,24.99
2022-08-26T01:07:59.636Z,25.04
2022-08-26T01:08:09.632Z,24.99
2022-08-26T01:08:19.633Z,24.99
2022-08-26T01:08:29.635Z,24.99
2022-08-26T01:08:39.640Z,24.97
2022-08-26T01:08:49.628Z,24.94
2022-08-26T01:08:59.746Z,24.97
2022-08-26T01:09:09.624Z,24.97
2022-08-26T01:09:19.627Z,24.93
2022-08-26T01:09:39.626Z,24.94
2022-08-26T01:09:49.621Z,24.93
2022-08-26T01:09:59.624Z,24.93
2022-08-26T01:10:09.617Z,24.93
2022-08-26T01:10:19.621Z,24.93
2022-08-26T01:10:29.614Z,24.93
2022-08-26T01:10:39.618Z,24.93
2022-08-26T01:10:49.613Z,24.89
2022-08-26T01:10:59.615Z,24.90
2022-08-26T01:11:09.620Z,24.93
2022-08-26T01:11:19.614Z,24.92
2022-08-26T01:11:29.609Z,24.89
2022-08-26T01:11:39.609Z,24.87
2022-08-26T01:11:49.670Z,24.87
2022-08-26T01:12:09.621Z,24.90
2022-08-26T01:12:22.015Z,24.89
2022-08-26T01:12:29.614Z,24.86
2022-08-26T01:12:40.219Z,24.86
2022-08-26T01:12:49.599Z,24.87
2022-08-26T01:12:59.612Z,24.87
2022-08-26T01:13:09.598Z,24.87
2022-08-26T01:13:20.157Z,24.87
2022-08-26T01:13:29.593Z,24.89
2022-08-26T01:13:39.595Z,24.87
2022-08-26T01:13:49.594Z,24.86
2022-08-26T01:13:59.593Z,24.87
2022-08-26T01:14:09.594Z,24.86
2022-08-26T01:14:19.608Z,24.89
2022-08-26T01:14:39.632Z,24.87
2022-08-26T01:14:49.587Z,24.90
2022-08-26T01:14:59.591Z,24.86
2022-08-26T01:15:09.583Z,24.89
2022-08-26T01:15:19.586Z,24.90
2022-08-26T01:15:29.583Z,24.87
2022-08-26T01:15:39.584Z,24.89
2022-08-26T01:15:49.579Z,24.89
2022-08-26T01:15:59.612Z,24.92
2022-08-26T01:16:09.600Z,24.90
2022-08-26T01:16:19.605Z,24.90
2022-08-26T01:16:29.601Z,24.90
2022-08-26T01:16:39.637Z,24.90
2022-08-26T01:16:49.670Z,24.89
2022-08-26T01:16:59.577Z,24.89
2022-08-26T01:17:09.570Z,24.87
2022-08-26T01:17:19.572Z,24.87
2022-08-26T01:17:29.606Z,24.87
2022-08-26T01:17:39.585Z,24.87
2022-08-26T01:17:49.570Z,24.84
2022-08-26T01:17:59.570Z,24.86
2022-08-26T01:18:09.562Z,24.83
2022-08-26T01:18:19.564Z,24.83
2022-08-26T01:18:29.561Z,24.80
2022-08-26T01:18:39.562Z,24.83
2022-08-26T01:18:49.559Z,24.86
2022-08-26T01:18:59.560Z,24.84
2022-08-26T01:19:09.557Z,24.83
2022-08-26T01:19:19.559Z,24.83
2022-08-26T01:19:39.558Z,24.89
2022-08-26T01:19:49.552Z,24.89
2022-08-26T01:19:59.554Z,24.92
2022-08-26T01:20:09.568Z,24.89
2022-08-26T01:20:19.552Z,24.89
2022-08-26T01:20:29.549Z,24.92
2022-08-26T01:20:39.549Z,24.90
2022-08-26T01:20:49.543Z,24.90
2022-08-26T01:20:59.549Z,24.89
2022-08-26T01:21:09.544Z,24.87
2022-08-26T01:21:19.544Z,24.87
2022-08-26T01:21:29.581Z,24.89
2022-08-26T01:21:40.550Z,24.89
2022-08-26T01:21:49.547Z,24.90
2022-08-26T01:21:59.540Z,24.87
2022-08-26T01:22:09.534Z,24.86
2022-08-26T01:22:29.535Z,24.89
2022-08-26T01:22:39.536Z,24.87
2022-08-26T01:22:49.531Z,24.89
2022-08-26T01:23:01.502Z,24.87
2022-08-26T01:23:09.553Z,24.92
2022-08-26T01:23:19.530Z,24.92
2022-08-26T01:23:29.529Z,24.89
2022-08-26T01:23:39.529Z,24.89
2022-08-26T01:23:49.524Z,24.87
2022-08-26T01:23:59.531Z,24.90
2022-08-26T01:24:10.282Z,24.92
2022-08-26T01:24:19.524Z,24.89
2022-08-26T01:24:29.523Z,24.87
2022-08-26T01:24:39.519Z,24.87
2022-08-26T01:24:49.518Z,24.89
2022-08-26T01:24:59.519Z,24.87
2022-08-26T01:25:09.513Z,24.87
2022-08-26T01:25:19.518Z,24.86
2022-08-26T01:25:29.513Z,24.87
2022-08-26T01:25:39.520Z,24.86
2022-08-26T01:25:49.511Z,24.82
2022-08-26T01:25:59.513Z,24.83
2022-08-26T01:26:09.509Z,24.83
2022-08-26T01:26:24.316Z,24.86
2022-08-26T01:26:30.550Z,24.89
2022-08-26T01:26:40.559Z,24.84
2022-08-26T01:26:50.550Z,24.86
2022-08-26T01:27:00.549Z,24.84
2022-08-26T01:27:10.552Z,24.83
2022-08-26T01:27:30.547Z,24.86
2022-08-26T01:27:40.546Z,24.86
2022-08-26T01:27:50.540Z,24.89
2022-08-26T01:28:00.544Z,24.87
2022-08-26T01:28:10.560Z,24.84
2022-08-26T01:28:20.544Z,24.84
2022-08-26T01:28:30.538Z,24.84
2022-08-26T01:28:40.539Z,24.84
2022-08-26T01:28:51.676Z,24.83
2022-08-26T01:29:00.539Z,24.87
2022-08-26T01:29:10.530Z,24.84
2022-08-26T01:29:20.539Z,24.87
2022-08-26T01:29:30.529Z,24.87
2022-08-26T01:29:40.535Z,24.87
2022-08-26T01:30:00.532Z,24.86
2022-08-26T01:30:10.526Z,24.86
2022-08-26T01:30:20.530Z,24.84
2022-08-26T01:30:30.530Z,24.82
2022-08-26T01:30:40.527Z,24.82
2022-08-26T01:30:50.522Z,24.84
2022-08-26T01:31:00.523Z,24.82
2022-08-26T01:31:10.610Z,24.80
2022-08-26T01:31:20.547Z,24.77
2022-08-26T01:31:30.583Z,24.79
2022-08-26T01:31:40.613Z,24.77
2022-08-26T01:31:50.535Z,24.79
2022-08-26T01:32:00.670Z,24.80
2022-08-26T01:32:10.513Z,24.77
2022-08-26T01:32:20.519Z,24.79
2022-08-26T01:32:30.513Z,24.79
2022-08-26T01:32:40.514Z,24.80
2022-08-26T01:32:50.509Z,24.79
2022-08-26T01:33:00.516Z,24.74
2022-08-26T01:33:10.508Z,24.74
2022-08-26T01:33:20.532Z,24.75
2022-08-26T01:33:30.504Z,24.75
2022-08-26T01:33:44.537Z,24.75
2022-08-26T01:33:50.500Z,24.77
2022-08-26T01:34:00.503Z,24.77
2022-08-26T01:34:10.498Z,24.77
2022-08-26T01:34:20.502Z,24.75
2022-08-26T01:34:30.496Z,24.77
2022-08-26T01:34:40.497Z,24.75
2022-08-26T01:34:50.494Z,24.75
2022-08-26T01:35:00.496Z,24.74
2022-08-26T01:35:10.493Z,24.70
2022-08-26T01:35:20.495Z,24.75
2022-08-26T01:35:30.488Z,24.77
2022-08-26T01:35:40.492Z,24.74
2022-08-26T01:35:50.487Z,24.77
2022-08-26T01:36:00.490Z,24.74
2022-08-26T01:36:10.485Z,24.77
2022-08-26T01:36:20.489Z,24.79
2022-08-26T01:36:30.482Z,24.75
2022-08-26T01:36:40.484Z,24.75
2022-08-26T01:36:51.510Z,24.71
2022-08-26T01:37:00.481Z,24.77
2022-08-26T01:37:13.782Z,24.75
2022-08-26T01:37:20.517Z,24.77
2022-08-26T01:37:40.602Z,24.80
2022-08-26T01:37:50.484Z,24.77
2022-08-26T01:38:00.478Z,24.79
2022-08-26T01:38:10.469Z,24.74
2022-08-26T01:38:20.489Z,24.71
2022-08-26T01:38:31.555Z,24.71
2022-08-26T01:38:40.475Z,24.71
2022-08-26T01:38:50.470Z,24.74
2022-08-26T01:39:00.470Z,24.75
2022-08-26T01:39:10.466Z,24.79
2022-08-26T01:39:20.468Z,24.79
2022-08-26T01:39:30.462Z,24.77
2022-08-26T01:39:40.479Z,24.77
2022-08-26T01:39:50.515Z,24.82
2022-08-26T01:40:10.537Z,24.79
2022-08-26T01:40:20.517Z,24.79
2022-08-26T01:40:30.513Z,24.80
2022-08-26T01:40:40.460Z,24.75
2022-08-26T01:40:50.486Z,24.71
2022-08-26T01:41:00.459Z,24.74
2022-08-26T01:41:16.134Z,24.75
2022-08-26T01:41:27.354Z,24.74
2022-08-26T01:41:33.553Z,24.75
2022-08-26T01:41:40.498Z,24.74
2022-08-26T01:41:53.501Z,24.75
2022-08-26T01:42:03.017Z,24.74
2022-08-26T01:42:10.601Z,24.77
2022-08-26T01:42:20.479Z,24.71
2022-08-26T01:42:40.479Z,24.70
2022-08-26T01:42:50.477Z,24.68
2022-08-26T01:43:00.519Z,24.70
2022-08-26T01:43:10.475Z,24.70
2022-08-26T01:43:20.474Z,24.71
2022-08-26T01:43:30.484Z,24.66
2022-08-26T01:43:40.477Z,24.66
2022-08-26T01:43:50.468Z,24.67
2022-08-26T01:44:00.469Z,24.66
2022-08-26T01:44:10.470Z,24.64
2022-08-26T01:44:20.467Z,24.64
2022-08-26T01:44:30.463Z,24.67
2022-08-26T01:44:40.466Z,24.66
2022-08-26T01:44:50.462Z,24.67
2022-08-26T01:45:10.465Z,24.70
2022-08-26T01:45:20.483Z,24.70
2022-08-26T01:45:30.539Z,24.71
2022-08-26T01:45:40.570Z,24.71
2022-08-26T01:45:50.493Z,24.71
2022-08-26T01:46:00.509Z,24.71
2022-08-26T01:46:10.523Z,24.71
2022-08-26T01:46:20.455Z,24.71
2022-08-26T01:46:30.454Z,24.71
2022-08-26T01:46:40.448Z,24.77
2022-08-26T01:46:50.727Z,24.75
2022-08-26T01:47:00.446Z,24.75
2022-08-26T01:47:10.449Z,24.80
2022-08-26T01:47:20.442Z,24.79
2022-08-26T01:47:40.443Z,24.77
2022-08-26T01:47:56.740Z,24.77
2022-08-26T01:48:01.772Z,24.75
2022-08-26T01:48:10.445Z,24.74
2022-08-26T01:48:20.437Z,24.74
2022-08-26T01:48:30.442Z,24.70
2022-08-26T01:48:40.433Z,24.68
2022-08-26T01:48:52.404Z,24.66
2022-08-26T01:49:00.433Z,24.67
2022-08-26T01:49:10.431Z,24.68
2022-08-26T01:49:20.432Z,24.68
2022-08-26T01:49:31.939Z,24.64
2022-08-26T01:49:40.428Z,24.61
2022-08-26T01:49:50.803Z,24.66
2022-08-26T01:50:10.429Z,24.64
2022-08-26T01:50:27.820Z,24.60
2022-08-26T01:50:32.799Z,24.59
2022-08-26T01:50:40.422Z,24.56
2022-08-26T01:50:50.423Z,24.60
2022-08-26T01:51:00.418Z,24.61
2022-08-26T01:51:10.420Z,24.63
2022-08-26T01:51:20.416Z,24.66
2022-08-26T01:51:30.419Z,24.66
2022-08-26T01:51:40.412Z,24.66
2022-08-26T01:51:50.421Z,24.71
2022-08-26T01:52:00.411Z,24.71
2022-08-26T01:52:10.765Z,24.71
2022-08-26T01:52:20.413Z,24.75
2022-08-26T01:52:40.408Z,24.79
2022-08-26T01:52:54.507Z,24.79
2022-08-26T01:53:00.408Z,24.82
2022-08-26T01:53:10.717Z,24.80
2022-08-26T01:53:21.369Z,24.83
2022-08-26T01:53:30.405Z,24.82
2022-08-26T01:53:41.784Z,24.84
2022-08-26T01:53:50.457Z,24.84
2022-08-26T01:54:00.397Z,24.83
2022-08-26T01:54:11.900Z,24.83
2022-08-26T01:54:20.500Z,24.84
2022-08-26T01:54:30.399Z,24.83
2022-08-26T01:54:40.393Z,24.86
2022-08-26T01:54:50.684Z,24.84
2022-08-26T01:55:10.394Z,24.82
2022-08-26T01:55:32.056Z,24.80
2022-08-26T01:55:37.083Z,24.79
2022-08-26T01:55:41.747Z,24.77
2022-08-26T01:55:51.748Z,24.77
2022-08-26T01:56:01.744Z,24.74
2022-08-26T01:56:11.746Z,24.74
2022-08-26T01:56:21.740Z,24.77
2022-08-26T01:56:33.354Z,24.79
2022-08-26T01:56:41.736Z,24.75
2022-08-26T01:56:51.740Z,24.75
2022-08-26T01:57:01.736Z,24.75
2022-08-26T01:57:11.742Z,24.74
2022-08-26T01:57:21.734Z,24.71
2022-08-26T01:57:41.736Z,24.71
2022-08-26T01:57:51.733Z,24.70
2022-08-26T01:58:01.729Z,24.67
2022-08-26T01:58:11.731Z,24.66
2022-08-26T01:58:21.727Z,24.68
2022-08-26T01:58:31.727Z,24.64
2022-08-26T01:58:41.726Z,24.64
2022-08-26T01:58:51.728Z,24.64
2022-08-26T01:59:01.721Z,24.61
2022-08-26T01:59:12.198Z,24.61
2022-08-26T01:59:21.724Z,24.61
2022-08-26T01:59:31.722Z,24.60
2022-08-26T01:59:41.717Z,24.60
2022-08-26T01:59:51.721Z,24.59
2022-08-26T02:00:01.732Z,24.59
2022-08-26T02:00:11.717Z,24.52
2022-08-26T02:00:21.711Z,24.53
2022-08-26T02:00:31.717Z,24.49
2022-08-26T02:00:41.775Z,24.45
2022-08-26T02:00:51.789Z,24.46
2022-08-26T02:01:02.556Z,24.45
2022-08-26T02:01:11.761Z,24.45
2022-08-26T02:01:21.769Z,24.46
2022-08-26T02:01:31.719Z,24.45
2022-08-26T02:01:41.705Z,24.46
2022-08-26T02:01:51.714Z,24.45
2022-08-26T02:02:01.702Z,24.44
2022-08-26T02:02:11.705Z,24.44
2022-08-26T02:02:21.700Z,24.49
2022-08-26T02:02:41.698Z,24.48
2022-08-26T02:02:51.700Z,24.51
2022-08-26T02:03:01.726Z,24.49
2022-08-26T02:03:11.713Z,24.46
2022-08-26T02:03:21.693Z,24.49
2022-08-26T02:03:31.714Z,24.48
2022-08-26T02:03:42.371Z,24.48
2022-08-26T02:03:51.695Z,24.51
2022-08-26T02:04:01.688Z,24.52
2022-08-26T02:04:11.709Z,24.52
2022-08-26T02:04:21.762Z,24.52
2022-08-26T02:04:31.731Z,24.51
2022-08-26T02:04:41.765Z,24.52
2022-08-26T02:04:51.780Z,24.51
2022-08-26T02:05:11.684Z,24.56
2022-08-26T02:05:21.680Z,24.52
2022-08-26T02:05:31.681Z,24.53
2022-08-26T02:05:41.676Z,24.55
2022-08-26T02:05:51.681Z,24.59
2022-08-26T02:06:01.675Z,24.59
2022-08-26T02:06:11.678Z,24.63
2022-08-26T02:06:21.673Z,24.60
2022-08-26T02:06:31.673Z,24.63
2022-08-26T02:06:41.670Z,24.66
2022-08-26T02:06:51.699Z,24.67
2022-08-26T02:07:01.667Z,24.68
2022-08-26T02:07:11.667Z,24.66
2022-08-26T02:07:21.665Z,24.66
2022-08-26T02:07:41.664Z,24.71
2022-08-26T02:07:51.664Z,24.70
2022-08-26T02:08:01.659Z,24.70
2022-08-26T02:08:11.665Z,24.70
2022-08-26T02:08:24.894Z,24.68
2022-08-26T02:08:31.656Z,24.70
2022-08-26T02:08:41.657Z,24.68
2022-08-26T02:08:51.657Z,24.67
2022-08-26T02:09:01.651Z,24.67
2022-08-26T02:09:11.655Z,24.67
2022-08-26T02:09:21.651Z,24.66
2022-08-26T02:09:31.666Z,24.60
2022-08-26T02:09:41.735Z,24.61
2022-08-26T02:09:51.651Z,24.60
2022-08-26T02:10:11.648Z,24.60
2022-08-26T02:10:21.644Z,24.61
2022-08-26T02:10:31.646Z,24.55
2022-08-26T02:10:41.697Z,24.56
2022-08-26T02:10:51.652Z,24.53
2022-08-26T02:11:01.637Z,24.55
2022-08-26T02:11:11.643Z,24.55
2022-08-26T02:11:21.638Z,24.59
2022-08-26T02:11:31.639Z,24.60
2022-08-26T02:11:41.640Z,24.61
2022-08-26T02:11:51.637Z,24.59
2022-08-26T02:12:01.667Z,24.55
2022-08-26T02:12:11.635Z,24.55
2022-08-26T02:12:21.630Z,24.55
2022-08-26T02:12:31.634Z,24.55
2022-08-26T02:12:41.630Z,24.56
2022-08-26T02:12:51.629Z,24.55
2022-08-26T02:13:01.729Z,24.53
2022-08-26T02:13:11.627Z,24.53
2022-08-26T02:13:21.626Z,24.52
2022-08-26T02:13:31.626Z,24.51
2022-08-26T02:13:41.621Z,24.46
2022-08-26T02:13:51.626Z,24.45
2022-08-26T02:14:01.619Z,24.45
2022-08-26T02:14:11.621Z,24.46
2022-08-26T02:14:21.616Z,24.45
2022-08-26T02:14:31.635Z,24.45
2022-08-26T02:14:43.707Z,24.45